sensor_id;sensor_type;location;lat;lon;timestamp;P1;durP1;ratioP1;P2;durP2;ratioP2
46777;SDS011;32536;47.128;8.746;2022-12-29T00:00:14;0.95;;;0.52;;
46777;SDS011;32536;47.128;8.746;2022-12-29T00:02:41;0.80;;;0.43;;
46777;SDS011;32536;47.128;8.746;2022-12-29T00:05:08;1.23;;;1.00;;
46777;SDS011;32536;47.128;8.746;2022-12-29T00:07:35;0.90;;;0.70;;
46777;SDS011;32536;47.128;8.746;2022-12-29T00:10:02;1.33;;;1.00;;
46777;SDS011;32536;47.128;8.746;2022-12-29T00:12:30;2.20;;;2.00;;
46777;SDS011;32536;47.128;8.746;2022-12-29T00:15:16;1.63;;;1.52;;
46777;SDS011;32536;47.128;8.746;2022-12-29T00:18:02;2.17;;;1.98;;
46777;SDS011;32536;47.128;8.746;2022-12-29T00:20:28;1.00;;;0.77;;
46777;SDS011;32536;47.128;8.746;2022-12-29T00:23:15;1.42;;;1.02;;
46777;SDS011;32536;47.128;8.746;2022-12-29T00:28:47;1.77;;;0.82;;
46777;SDS011;32536;47.128;8.746;2022-12-29T00:31:34;1.25;;;0.70;;
46777;SDS011;32536;47.128;8.746;2022-12-29T00:34:20;2.08;;;0.85;;
46777;SDS011;32536;47.128;8.746;2022-12-29T00:37:05;1.70;;;1.00;;
46777;SDS011;32536;47.128;8.746;2022-12-29T00:39:32;1.48;;;0.60;;
46777;SDS011;32536;47.128;8.746;2022-12-29T00:45:04;2.45;;;2.25;;
46777;SDS011;32536;47.128;8.746;2022-12-29T00:47:31;2.88;;;2.22;;
46777;SDS011;32536;47.128;8.746;2022-12-29T00:49:58;2.47;;;2.08;;
46777;SDS011;32536;47.128;8.746;2022-12-29T00:52:24;2.22;;;1.92;;
46777;SDS011;32536;47.128;8.746;2022-12-29T00:54:51;1.50;;;1.38;;
46777;SDS011;32536;47.128;8.746;2022-12-29T00:57:18;2.35;;;2.15;;
46777;SDS011;32536;47.128;8.746;2022-12-29T00:59:44;1.92;;;1.23;;
46777;SDS011;32536;47.128;8.746;2022-12-29T01:02:11;1.45;;;1.15;;
46777;SDS011;32536;47.128;8.746;2022-12-29T01:04:38;2.63;;;1.63;;
46777;SDS011;32536;47.128;8.746;2022-12-29T01:07:05;1.55;;;0.80;;
46777;SDS011;32536;47.128;8.746;2022-12-29T01:09:32;1.40;;;0.98;;
46777;SDS011;32536;47.128;8.746;2022-12-29T01:15:04;0.63;;;0.45;;
46777;SDS011;32536;47.128;8.746;2022-12-29T01:17:33;1.00;;;0.75;;
46777;SDS011;32536;47.128;8.746;2022-12-29T01:20:00;2.13;;;1.13;;
46777;SDS011;32536;47.128;8.746;2022-12-29T01:22:28;1.70;;;1.15;;
46777;SDS011;32536;47.128;8.746;2022-12-29T01:24:55;1.25;;;0.70;;
46777;SDS011;32536;47.128;8.746;2022-12-29T01:27:22;1.73;;;1.00;;
46777;SDS011;32536;47.128;8.746;2022-12-29T01:29:49;1.30;;;0.95;;
46777;SDS011;32536;47.128;8.746;2022-12-29T01:32:16;2.75;;;2.55;;
46777;SDS011;32536;47.128;8.746;2022-12-29T01:34:43;1.70;;;1.02;;
46777;SDS011;32536;47.128;8.746;2022-12-29T01:37:09;1.85;;;0.77;;
46777;SDS011;32536;47.128;8.746;2022-12-29T01:40:11;1.63;;;0.80;;
46777;SDS011;32536;47.128;8.746;2022-12-29T01:42:38;1.00;;;0.90;;
46777;SDS011;32536;47.128;8.746;2022-12-29T01:45:09;0.85;;;0.43;;
46777;SDS011;32536;47.128;8.746;2022-12-29T01:47:39;1.52;;;0.95;;
46777;SDS011;32536;47.128;8.746;2022-12-29T01:55:44;1.38;;;0.93;;
46777;SDS011;32536;47.128;8.746;2022-12-29T01:58:18;1.20;;;0.82;;
46777;SDS011;32536;47.128;8.746;2022-12-29T02:00:48;1.65;;;1.25;;
46777;SDS011;32536;47.128;8.746;2022-12-29T02:03:15;2.08;;;1.70;;
46777;SDS011;32536;47.128;8.746;2022-12-29T02:05:47;1.45;;;1.13;;
46777;SDS011;32536;47.128;8.746;2022-12-29T02:10:46;1.27;;;0.70;;
46777;SDS011;32536;47.128;8.746;2022-12-29T02:13:16;1.95;;;1.08;;
46777;SDS011;32536;47.128;8.746;2022-12-29T02:24:36;1.67;;;1.05;;
46777;SDS011;32536;47.128;8.746;2022-12-29T02:27:36;2.75;;;1.70;;
46777;SDS011;32536;47.128;8.746;2022-12-29T02:44:55;1.13;;;0.60;;
46777;SDS011;32536;47.128;8.746;2022-12-29T02:47:33;1.98;;;0.95;;
46777;SDS011;32536;47.128;8.746;2022-12-29T02:52:46;1.33;;;0.80;;
46777;SDS011;32536;47.128;8.746;2022-12-29T02:55:25;1.75;;;1.02;;
46777;SDS011;32536;47.128;8.746;2022-12-29T03:03:59;1.27;;;0.98;;
46777;SDS011;32536;47.128;8.746;2022-12-29T03:16:20;2.05;;;1.38;;
46777;SDS011;32536;47.128;8.746;2022-12-29T03:19:04;1.55;;;1.10;;
46777;SDS011;32536;47.128;8.746;2022-12-29T03:21:39;2.15;;;1.48;;
46777;SDS011;32536;47.128;8.746;2022-12-29T03:24:30;1.15;;;0.70;;
46777;SDS011;32536;47.128;8.746;2022-12-29T03:27:03;1.80;;;1.30;;
46777;SDS011;32536;47.128;8.746;2022-12-29T03:29:33;1.48;;;1.25;;
46777;SDS011;32536;47.128;8.746;2022-12-29T03:32:07;1.17;;;0.90;;
46777;SDS011;32536;47.128;8.746;2022-12-29T03:34:35;2.45;;;1.67;;
46777;SDS011;32536;47.128;8.746;2022-12-29T03:37:05;1.65;;;1.08;;
46777;SDS011;32536;47.128;8.746;2022-12-29T03:39:40;2.08;;;0.95;;
46777;SDS011;32536;47.128;8.746;2022-12-29T03:42:09;1.13;;;0.65;;
46777;SDS011;32536;47.128;8.746;2022-12-29T03:44:42;2.20;;;1.35;;
46777;SDS011;32536;47.128;8.746;2022-12-29T03:47:10;2.05;;;1.85;;
46777;SDS011;32536;47.128;8.746;2022-12-29T03:49:39;1.58;;;1.35;;
46777;SDS011;32536;47.128;8.746;2022-12-29T03:52:06;1.88;;;1.67;;
46777;SDS011;32536;47.128;8.746;2022-12-29T03:54:33;1.23;;;1.10;;
46777;SDS011;32536;47.128;8.746;2022-12-29T03:56:59;1.92;;;1.30;;
46777;SDS011;32536;47.128;8.746;2022-12-29T03:59:26;2.50;;;2.03;;
46777;SDS011;32536;47.128;8.746;2022-12-29T04:01:53;2.88;;;1.38;;
46777;SDS011;32536;47.128;8.746;2022-12-29T04:04:20;2.72;;;1.83;;
46777;SDS011;32536;47.128;8.746;2022-12-29T04:06:47;2.63;;;0.77;;
46777;SDS011;32536;47.128;8.746;2022-12-29T04:09:14;2.85;;;1.75;;
46777;SDS011;32536;47.128;8.746;2022-12-29T04:11:40;1.88;;;0.80;;
46777;SDS011;32536;47.128;8.746;2022-12-29T04:14:07;1.50;;;1.02;;
46777;SDS011;32536;47.128;8.746;2022-12-29T04:16:34;2.35;;;0.80;;
46777;SDS011;32536;47.128;8.746;2022-12-29T04:19:05;2.45;;;2.03;;
46777;SDS011;32536;47.128;8.746;2022-12-29T04:21:33;1.30;;;1.10;;
46777;SDS011;32536;47.128;8.746;2022-12-29T04:24:00;1.70;;;1.10;;
46777;SDS011;32536;47.128;8.746;2022-12-29T04:26:26;1.67;;;0.80;;
46777;SDS011;32536;47.128;8.746;2022-12-29T04:28:53;0.98;;;0.60;;
46777;SDS011;32536;47.128;8.746;2022-12-29T04:31:20;1.25;;;0.70;;
46777;SDS011;32536;47.128;8.746;2022-12-29T04:33:47;1.30;;;0.70;;
46777;SDS011;32536;47.128;8.746;2022-12-29T04:36:13;1.20;;;0.60;;
46777;SDS011;32536;47.128;8.746;2022-12-29T04:38:40;1.23;;;0.65;;
46777;SDS011;32536;47.128;8.746;2022-12-29T04:41:07;1.63;;;1.30;;
46777;SDS011;32536;47.128;8.746;2022-12-29T04:43:34;1.85;;;1.23;;
46777;SDS011;32536;47.128;8.746;2022-12-29T04:46:00;1.88;;;1.30;;
46777;SDS011;32536;47.128;8.746;2022-12-29T04:48:27;1.58;;;1.08;;
46777;SDS011;32536;47.128;8.746;2022-12-29T04:50:54;1.65;;;1.33;;
46777;SDS011;32536;47.128;8.746;2022-12-29T04:53:20;2.28;;;2.08;;
46777;SDS011;32536;47.128;8.746;2022-12-29T04:55:50;1.33;;;0.70;;
46777;SDS011;32536;47.128;8.746;2022-12-29T04:58:20;1.60;;;0.80;;
46777;SDS011;32536;47.128;8.746;2022-12-29T05:00:47;2.38;;;2.00;;
46777;SDS011;32536;47.128;8.746;2022-12-29T05:03:14;1.38;;;0.98;;
46777;SDS011;32536;47.128;8.746;2022-12-29T05:05:40;1.48;;;0.60;;
46777;SDS011;32536;47.128;8.746;2022-12-29T05:08:07;1.67;;;1.52;;
46777;SDS011;32536;47.128;8.746;2022-12-29T05:10:34;2.10;;;1.52;;
46777;SDS011;32536;47.128;8.746;2022-12-29T05:13:01;2.00;;;0.70;;
46777;SDS011;32536;47.128;8.746;2022-12-29T05:15:27;1.55;;;1.00;;
46777;SDS011;32536;47.128;8.746;2022-12-29T05:17:54;1.65;;;0.70;;
46777;SDS011;32536;47.128;8.746;2022-12-29T05:20:21;1.40;;;0.82;;
46777;SDS011;32536;47.128;8.746;2022-12-29T05:22:48;1.48;;;1.17;;
46777;SDS011;32536;47.128;8.746;2022-12-29T05:25:15;1.55;;;1.25;;
46777;SDS011;32536;47.128;8.746;2022-12-29T05:27:41;1.13;;;0.70;;
46777;SDS011;32536;47.128;8.746;2022-12-29T05:30:08;1.45;;;0.65;;
46777;SDS011;32536;47.128;8.746;2022-12-29T05:32:36;2.75;;;1.98;;
46777;SDS011;32536;47.128;8.746;2022-12-29T05:35:03;3.65;;;1.70;;
46777;SDS011;32536;47.128;8.746;2022-12-29T05:40:25;1.67;;;1.13;;
46777;SDS011;32536;47.128;8.746;2022-12-29T05:42:52;1.90;;;1.23;;
46777;SDS011;32536;47.128;8.746;2022-12-29T05:45:19;2.13;;;1.30;;
46777;SDS011;32536;47.128;8.746;2022-12-29T05:47:45;2.72;;;1.50;;
46777;SDS011;32536;47.128;8.746;2022-12-29T05:50:12;2.20;;;1.05;;
46777;SDS011;32536;47.128;8.746;2022-12-29T05:52:39;1.60;;;1.33;;
46777;SDS011;32536;47.128;8.746;2022-12-29T05:55:06;2.72;;;2.53;;
46777;SDS011;32536;47.128;8.746;2022-12-29T05:57:33;1.92;;;0.63;;
46777;SDS011;32536;47.128;8.746;2022-12-29T06:00:00;1.38;;;0.65;;
46777;SDS011;32536;47.128;8.746;2022-12-29T06:02:27;1.50;;;1.08;;
46777;SDS011;32536;47.128;8.746;2022-12-29T06:04:54;1.60;;;0.80;;
46777;SDS011;32536;47.128;8.746;2022-12-29T06:07:20;1.60;;;1.17;;
46777;SDS011;32536;47.128;8.746;2022-12-29T06:09:47;2.70;;;1.60;;
46777;SDS011;32536;47.128;8.746;2022-12-29T06:12:14;2.28;;;1.48;;
46777;SDS011;32536;47.128;8.746;2022-12-29T06:14:40;1.52;;;0.70;;
46777;SDS011;32536;47.128;8.746;2022-12-29T06:17:07;1.38;;;1.00;;
46777;SDS011;32536;47.128;8.746;2022-12-29T06:19:35;1.83;;;0.80;;
46777;SDS011;32536;47.128;8.746;2022-12-29T06:22:01;1.52;;;1.00;;
46777;SDS011;32536;47.128;8.746;2022-12-29T06:24:28;2.13;;;1.52;;
46777;SDS011;32536;47.128;8.746;2022-12-29T06:26:55;1.38;;;0.77;;
46777;SDS011;32536;47.128;8.746;2022-12-29T06:29:22;2.28;;;1.40;;
46777;SDS011;32536;47.128;8.746;2022-12-29T06:31:48;1.83;;;1.02;;
46777;SDS011;32536;47.128;8.746;2022-12-29T06:34:16;2.15;;;0.70;;
46777;SDS011;32536;47.128;8.746;2022-12-29T06:36:43;1.40;;;0.98;;
46777;SDS011;32536;47.128;8.746;2022-12-29T06:39:10;1.75;;;1.30;;
46777;SDS011;32536;47.128;8.746;2022-12-29T06:41:37;1.27;;;0.90;;
46777;SDS011;32536;47.128;8.746;2022-12-29T06:44:03;1.80;;;1.27;;
46777;SDS011;32536;47.128;8.746;2022-12-29T06:46:30;1.33;;;0.88;;
46777;SDS011;32536;47.128;8.746;2022-12-29T06:48:57;1.63;;;1.02;;
46777;SDS011;32536;47.128;8.746;2022-12-29T06:51:23;1.55;;;1.25;;
46777;SDS011;32536;47.128;8.746;2022-12-29T06:53:50;2.35;;;1.63;;
46777;SDS011;32536;47.128;8.746;2022-12-29T06:56:17;1.70;;;1.23;;
46777;SDS011;32536;47.128;8.746;2022-12-29T06:58:43;2.15;;;1.38;;
46777;SDS011;32536;47.128;8.746;2022-12-29T07:01:10;1.92;;;1.38;;
46777;SDS011;32536;47.128;8.746;2022-12-29T07:03:37;1.90;;;1.25;;
46777;SDS011;32536;47.128;8.746;2022-12-29T07:06:04;2.05;;;0.88;;
46777;SDS011;32536;47.128;8.746;2022-12-29T07:08:31;1.90;;;1.00;;
46777;SDS011;32536;47.128;8.746;2022-12-29T07:10:58;2.03;;;1.50;;
46777;SDS011;32536;47.128;8.746;2022-12-29T07:13:24;2.22;;;1.35;;
46777;SDS011;32536;47.128;8.746;2022-12-29T07:15:51;2.25;;;1.23;;
46777;SDS011;32536;47.128;8.746;2022-12-29T07:18:18;1.92;;;0.93;;
46777;SDS011;32536;47.128;8.746;2022-12-29T07:20:45;2.33;;;1.23;;
46777;SDS011;32536;47.128;8.746;2022-12-29T07:23:11;3.50;;;1.83;;
46777;SDS011;32536;47.128;8.746;2022-12-29T07:25:39;2.38;;;1.42;;
46777;SDS011;32536;47.128;8.746;2022-12-29T07:28:06;1.95;;;1.20;;
46777;SDS011;32536;47.128;8.746;2022-12-29T07:30:36;2.67;;;1.75;;
46777;SDS011;32536;47.128;8.746;2022-12-29T07:33:04;2.08;;;1.48;;
46777;SDS011;32536;47.128;8.746;2022-12-29T07:35:30;3.22;;;1.40;;
46777;SDS011;32536;47.128;8.746;2022-12-29T07:38:08;2.55;;;1.85;;
46777;SDS011;32536;47.128;8.746;2022-12-29T07:40:35;3.35;;;1.23;;
46777;SDS011;32536;47.128;8.746;2022-12-29T07:43:01;2.35;;;1.45;;
46777;SDS011;32536;47.128;8.746;2022-12-29T07:45:29;4.22;;;1.52;;
46777;SDS011;32536;47.128;8.746;2022-12-29T07:47:56;3.35;;;1.85;;
46777;SDS011;32536;47.128;8.746;2022-12-29T07:50:23;4.05;;;1.77;;
46777;SDS011;32536;47.128;8.746;2022-12-29T07:52:50;2.10;;;1.05;;
46777;SDS011;32536;47.128;8.746;2022-12-29T07:55:16;2.08;;;1.10;;
46777;SDS011;32536;47.128;8.746;2022-12-29T07:57:43;5.45;;;2.85;;
46777;SDS011;32536;47.128;8.746;2022-12-29T08:00:10;2.70;;;1.42;;
46777;SDS011;32536;47.128;8.746;2022-12-29T08:02:38;2.78;;;1.45;;
46777;SDS011;32536;47.128;8.746;2022-12-29T08:05:04;3.50;;;1.60;;
46777;SDS011;32536;47.128;8.746;2022-12-29T08:07:32;3.17;;;1.10;;
46777;SDS011;32536;47.128;8.746;2022-12-29T08:09:58;2.33;;;1.48;;
46777;SDS011;32536;47.128;8.746;2022-12-29T08:12:25;2.20;;;1.42;;
46777;SDS011;32536;47.128;8.746;2022-12-29T08:14:52;2.80;;;1.05;;
46777;SDS011;32536;47.128;8.746;2022-12-29T08:17:19;2.63;;;1.27;;
46777;SDS011;32536;47.128;8.746;2022-12-29T08:19:45;2.97;;;1.40;;
46777;SDS011;32536;47.128;8.746;2022-12-29T08:22:13;3.08;;;1.60;;
46777;SDS011;32536;47.128;8.746;2022-12-29T08:24:40;6.85;;;3.00;;
46777;SDS011;32536;47.128;8.746;2022-12-29T08:27:07;3.67;;;2.63;;
46777;SDS011;32536;47.128;8.746;2022-12-29T08:29:33;4.43;;;2.40;;
46777;SDS011;32536;47.128;8.746;2022-12-29T08:32:00;5.57;;;2.63;;
46777;SDS011;32536;47.128;8.746;2022-12-29T08:34:27;6.88;;;2.83;;
46777;SDS011;32536;47.128;8.746;2022-12-29T08:36:54;4.43;;;1.85;;
46777;SDS011;32536;47.128;8.746;2022-12-29T08:39:20;5.55;;;2.63;;
46777;SDS011;32536;47.128;8.746;2022-12-29T08:41:47;4.07;;;1.75;;
46777;SDS011;32536;47.128;8.746;2022-12-29T08:44:14;4.13;;;1.75;;
46777;SDS011;32536;47.128;8.746;2022-12-29T08:46:41;2.75;;;1.02;;
46777;SDS011;32536;47.128;8.746;2022-12-29T08:49:07;2.60;;;1.33;;
46777;SDS011;32536;47.128;8.746;2022-12-29T08:51:34;4.05;;;1.50;;
46777;SDS011;32536;47.128;8.746;2022-12-29T08:54:01;3.15;;;0.93;;
46777;SDS011;32536;47.128;8.746;2022-12-29T08:56:28;3.53;;;1.58;;
46777;SDS011;32536;47.128;8.746;2022-12-29T08:58:54;4.38;;;2.22;;
46777;SDS011;32536;47.128;8.746;2022-12-29T09:01:21;4.55;;;1.75;;
46777;SDS011;32536;47.128;8.746;2022-12-29T09:03:48;3.78;;;2.13;;
46777;SDS011;32536;47.128;8.746;2022-12-29T09:06:16;3.33;;;1.30;;
46777;SDS011;32536;47.128;8.746;2022-12-29T09:08:44;3.85;;;1.33;;
46777;SDS011;32536;47.128;8.746;2022-12-29T09:13:44;4.25;;;1.95;;
46777;SDS011;32536;47.128;8.746;2022-12-29T09:16:14;3.63;;;1.75;;
46777;SDS011;32536;47.128;8.746;2022-12-29T09:18:41;2.88;;;1.42;;
46777;SDS011;32536;47.128;8.746;2022-12-29T09:21:09;4.32;;;1.38;;
46777;SDS011;32536;47.128;8.746;2022-12-29T09:23:38;3.03;;;1.40;;
46777;SDS011;32536;47.128;8.746;2022-12-29T09:26:05;2.83;;;1.45;;
46777;SDS011;32536;47.128;8.746;2022-12-29T09:28:33;2.95;;;1.65;;
46777;SDS011;32536;47.128;8.746;2022-12-29T09:31:00;2.78;;;1.52;;
46777;SDS011;32536;47.128;8.746;2022-12-29T09:33:28;2.15;;;1.25;;
46777;SDS011;32536;47.128;8.746;2022-12-29T09:35:55;2.10;;;0.98;;
46777;SDS011;32536;47.128;8.746;2022-12-29T09:38:24;1.92;;;1.15;;
46777;SDS011;32536;47.128;8.746;2022-12-29T09:40:53;2.08;;;1.13;;
46777;SDS011;32536;47.128;8.746;2022-12-29T09:43:49;2.70;;;1.80;;
46777;SDS011;32536;47.128;8.746;2022-12-29T09:46:35;2.13;;;1.25;;
46777;SDS011;32536;47.128;8.746;2022-12-29T09:49:09;2.33;;;0.80;;
46777;SDS011;32536;47.128;8.746;2022-12-29T09:51:50;2.85;;;1.50;;
46777;SDS011;32536;47.128;8.746;2022-12-29T09:57:08;3.75;;;1.38;;
46777;SDS011;32536;47.128;8.746;2022-12-29T09:59:52;2.25;;;0.90;;
46777;SDS011;32536;47.128;8.746;2022-12-29T10:02:39;3.03;;;1.55;;
46777;SDS011;32536;47.128;8.746;2022-12-29T10:05:43;2.78;;;1.50;;
46777;SDS011;32536;47.128;8.746;2022-12-29T10:16:37;1.92;;;1.13;;
46777;SDS011;32536;47.128;8.746;2022-12-29T10:24:58;2.45;;;1.17;;
46777;SDS011;32536;47.128;8.746;2022-12-29T10:27:30;3.63;;;1.55;;
46777;SDS011;32536;47.128;8.746;2022-12-29T10:29:59;3.30;;;1.50;;
46777;SDS011;32536;47.128;8.746;2022-12-29T10:43:58;3.28;;;1.55;;
46777;SDS011;32536;47.128;8.746;2022-12-29T10:46:27;2.67;;;1.20;;
46777;SDS011;32536;47.128;8.746;2022-12-29T10:49:00;2.40;;;1.38;;
46777;SDS011;32536;47.128;8.746;2022-12-29T10:51:28;1.52;;;1.10;;
46777;SDS011;32536;47.128;8.746;2022-12-29T10:56:51;2.22;;;1.08;;
46777;SDS011;32536;47.128;8.746;2022-12-29T10:59:35;2.40;;;1.35;;
46777;SDS011;32536;47.128;8.746;2022-12-29T11:04:42;2.75;;;1.10;;
46777;SDS011;32536;47.128;8.746;2022-12-29T11:07:41;2.53;;;1.45;;
46777;SDS011;32536;47.128;8.746;2022-12-29T11:13:19;1.42;;;1.13;;
46777;SDS011;32536;47.128;8.746;2022-12-29T11:15:53;2.05;;;1.10;;
46777;SDS011;32536;47.128;8.746;2022-12-29T11:21:03;2.42;;;1.00;;
46777;SDS011;32536;47.128;8.746;2022-12-29T11:24:03;2.05;;;1.27;;
46777;SDS011;32536;47.128;8.746;2022-12-29T11:26:34;2.50;;;1.13;;
46777;SDS011;32536;47.128;8.746;2022-12-29T11:29:08;1.85;;;1.10;;
46777;SDS011;32536;47.128;8.746;2022-12-29T11:31:41;1.65;;;1.20;;
46777;SDS011;32536;47.128;8.746;2022-12-29T11:34:16;2.63;;;1.42;;
46777;SDS011;32536;47.128;8.746;2022-12-29T11:37:00;3.35;;;1.25;;
46777;SDS011;32536;47.128;8.746;2022-12-29T11:39:50;2.33;;;1.17;;
46777;SDS011;32536;47.128;8.746;2022-12-29T11:45:23;1.83;;;0.80;;
46777;SDS011;32536;47.128;8.746;2022-12-29T11:47:58;2.13;;;1.13;;
46777;SDS011;32536;47.128;8.746;2022-12-29T11:50:36;2.25;;;1.13;;
46777;SDS011;32536;47.128;8.746;2022-12-29T11:53:07;1.75;;;1.00;;
46777;SDS011;32536;47.128;8.746;2022-12-29T11:58:30;1.38;;;1.00;;
46777;SDS011;32536;47.128;8.746;2022-12-29T12:04:17;1.65;;;1.17;;
46777;SDS011;32536;47.128;8.746;2022-12-29T12:06:53;1.48;;;0.98;;
46777;SDS011;32536;47.128;8.746;2022-12-29T12:09:45;1.45;;;0.73;;
46777;SDS011;32536;47.128;8.746;2022-12-29T12:15:28;3.17;;;1.65;;
46777;SDS011;32536;47.128;8.746;2022-12-29T12:18:09;2.65;;;1.52;;
46777;SDS011;32536;47.128;8.746;2022-12-29T12:20:42;2.20;;;1.10;;
46777;SDS011;32536;47.128;8.746;2022-12-29T12:31:57;1.63;;;0.77;;
46777;SDS011;32536;47.128;8.746;2022-12-29T12:34:42;1.15;;;0.88;;
46777;SDS011;32536;47.128;8.746;2022-12-29T12:49:30;1.02;;;0.73;;
46777;SDS011;32536;47.128;8.746;2022-12-29T12:55:22;1.35;;;0.85;;
46777;SDS011;32536;47.128;8.746;2022-12-29T12:58:29;0.90;;;0.40;;
46777;SDS011;32536;47.128;8.746;2022-12-29T13:30:10;1.88;;;1.10;;
46777;SDS011;32536;47.128;8.746;2022-12-29T13:32:53;2.28;;;2.08;;
46777;SDS011;32536;47.128;8.746;2022-12-29T13:38:35;1.75;;;1.00;;
46777;SDS011;32536;47.128;8.746;2022-12-29T13:41:19;1.23;;;0.80;;
46777;SDS011;32536;47.128;8.746;2022-12-29T13:43:54;2.15;;;1.10;;
46777;SDS011;32536;47.128;8.746;2022-12-29T13:46:24;1.40;;;0.85;;
46777;SDS011;32536;47.128;8.746;2022-12-29T13:49:01;1.02;;;0.75;;
46777;SDS011;32536;47.128;8.746;2022-12-29T13:51:43;1.00;;;0.70;;
46777;SDS011;32536;47.128;8.746;2022-12-29T13:54:32;1.50;;;0.82;;
46777;SDS011;32536;47.128;8.746;2022-12-29T13:57:35;1.00;;;0.77;;
46777;SDS011;32536;47.128;8.746;2022-12-29T14:00:16;1.55;;;0.98;;
46777;SDS011;32536;47.128;8.746;2022-12-29T14:05:31;1.80;;;0.93;;
46777;SDS011;32536;47.128;8.746;2022-12-29T14:08:02;2.05;;;1.10;;
46777;SDS011;32536;47.128;8.746;2022-12-29T14:10:36;2.00;;;1.00;;
46777;SDS011;32536;47.128;8.746;2022-12-29T14:13:14;2.15;;;1.00;;
46777;SDS011;32536;47.128;8.746;2022-12-29T14:15:44;1.77;;;1.05;;
46777;SDS011;32536;47.128;8.746;2022-12-29T14:20:54;3.35;;;1.42;;
46777;SDS011;32536;47.128;8.746;2022-12-29T14:23:28;2.80;;;1.25;;
46777;SDS011;32536;47.128;8.746;2022-12-29T14:28:36;2.25;;;1.25;;
46777;SDS011;32536;47.128;8.746;2022-12-29T14:31:05;1.80;;;1.15;;
46777;SDS011;32536;47.128;8.746;2022-12-29T14:36:33;2.85;;;1.10;;
46777;SDS011;32536;47.128;8.746;2022-12-29T14:39:03;3.72;;;1.45;;
46777;SDS011;32536;47.128;8.746;2022-12-29T14:47:34;1.17;;;0.75;;
46777;SDS011;32536;47.128;8.746;2022-12-29T14:52:50;3.08;;;1.13;;
46777;SDS011;32536;47.128;8.746;2022-12-29T14:58:06;1.65;;;0.80;;
46777;SDS011;32536;47.128;8.746;2022-12-29T15:00:46;1.75;;;1.33;;
46777;SDS011;32536;47.128;8.746;2022-12-29T15:05:52;1.70;;;0.95;;
46777;SDS011;32536;47.128;8.746;2022-12-29T15:08:29;2.03;;;1.15;;
46777;SDS011;32536;47.128;8.746;2022-12-29T15:11:01;2.58;;;1.10;;
46777;SDS011;32536;47.128;8.746;2022-12-29T15:13:43;2.28;;;1.10;;
46777;SDS011;32536;47.128;8.746;2022-12-29T15:16:30;1.50;;;0.95;;
46777;SDS011;32536;47.128;8.746;2022-12-29T15:19:01;1.83;;;0.90;;
46777;SDS011;32536;47.128;8.746;2022-12-29T15:21:31;1.85;;;1.10;;
46777;SDS011;32536;47.128;8.746;2022-12-29T15:26:36;1.30;;;0.80;;
46777;SDS011;32536;47.128;8.746;2022-12-29T15:32:39;1.20;;;0.77;;
46777;SDS011;32536;47.128;8.746;2022-12-29T15:41:04;1.48;;;0.82;;
46777;SDS011;32536;47.128;8.746;2022-12-29T15:46:34;2.58;;;1.08;;
46777;SDS011;32536;47.128;8.746;2022-12-29T15:49:04;2.15;;;1.23;;
46777;SDS011;32536;47.128;8.746;2022-12-29T15:51:34;2.40;;;1.63;;
46777;SDS011;32536;47.128;8.746;2022-12-29T15:54:03;1.52;;;0.93;;
46777;SDS011;32536;47.128;8.746;2022-12-29T15:56:31;3.15;;;1.05;;
46777;SDS011;32536;47.128;8.746;2022-12-29T15:59:00;1.70;;;0.90;;
46777;SDS011;32536;47.128;8.746;2022-12-29T16:03:58;3.30;;;1.42;;
46777;SDS011;32536;47.128;8.746;2022-12-29T16:09:16;2.65;;;1.05;;
46777;SDS011;32536;47.128;8.746;2022-12-29T16:11:57;2.17;;;1.25;;
46777;SDS011;32536;47.128;8.746;2022-12-29T16:17:23;2.95;;;1.25;;
46777;SDS011;32536;47.128;8.746;2022-12-29T16:20:04;3.08;;;1.17;;
46777;SDS011;32536;47.128;8.746;2022-12-29T16:22:49;2.75;;;1.20;;
46777;SDS011;32536;47.128;8.746;2022-12-29T16:27:57;1.80;;;0.90;;
46777;SDS011;32536;47.128;8.746;2022-12-29T16:30:26;2.13;;;1.23;;
46777;SDS011;32536;47.128;8.746;2022-12-29T16:33:01;1.63;;;0.82;;
46777;SDS011;32536;47.128;8.746;2022-12-29T16:35:45;1.38;;;0.90;;
46777;SDS011;32536;47.128;8.746;2022-12-29T16:41:08;1.88;;;1.13;;
46777;SDS011;32536;47.128;8.746;2022-12-29T16:43:35;1.48;;;0.98;;
46777;SDS011;32536;47.128;8.746;2022-12-29T16:46:18;2.35;;;1.27;;
46777;SDS011;32536;47.128;8.746;2022-12-29T16:48:54;2.50;;;1.13;;
46777;SDS011;32536;47.128;8.746;2022-12-29T16:51:32;2.78;;;1.20;;
46777;SDS011;32536;47.128;8.746;2022-12-29T16:54:02;3.35;;;1.52;;
46777;SDS011;32536;47.128;8.746;2022-12-29T16:56:30;2.00;;;0.88;;
46777;SDS011;32536;47.128;8.746;2022-12-29T17:01:46;2.38;;;1.02;;
46777;SDS011;32536;47.128;8.746;2022-12-29T17:04:13;1.73;;;1.17;;
46777;SDS011;32536;47.128;8.746;2022-12-29T17:06:40;2.03;;;1.05;;
46777;SDS011;32536;47.128;8.746;2022-12-29T17:12:07;3.03;;;1.45;;
46777;SDS011;32536;47.128;8.746;2022-12-29T17:22:56;8.05;;;3.10;;
46777;SDS011;32536;47.128;8.746;2022-12-29T17:25:28;5.13;;;1.83;;
46777;SDS011;32536;47.128;8.746;2022-12-29T17:28:00;3.78;;;1.63;;
46777;SDS011;32536;47.128;8.746;2022-12-29T17:30:31;2.90;;;1.30;;
46777;SDS011;32536;47.128;8.746;2022-12-29T17:33:04;2.97;;;1.35;;
46777;SDS011;32536;47.128;8.746;2022-12-29T17:35:35;2.90;;;1.17;;
46777;SDS011;32536;47.128;8.746;2022-12-29T17:38:01;2.72;;;1.30;;
46777;SDS011;32536;47.128;8.746;2022-12-29T17:40:29;3.85;;;1.73;;
46777;SDS011;32536;47.128;8.746;2022-12-29T17:42:58;3.08;;;1.38;;
46777;SDS011;32536;47.128;8.746;2022-12-29T17:45:29;3.63;;;1.45;;
46777;SDS011;32536;47.128;8.746;2022-12-29T17:50:28;5.45;;;2.55;;
46777;SDS011;32536;47.128;8.746;2022-12-29T17:53:04;6.53;;;3.13;;
46777;SDS011;32536;47.128;8.746;2022-12-29T17:55:37;5.15;;;2.75;;
46777;SDS011;32536;47.128;8.746;2022-12-29T17:58:13;5.78;;;2.47;;
46777;SDS011;32536;47.128;8.746;2022-12-29T18:00:43;3.78;;;1.92;;
46777;SDS011;32536;47.128;8.746;2022-12-29T18:03:13;6.78;;;2.88;;
46777;SDS011;32536;47.128;8.746;2022-12-29T18:05:42;3.63;;;1.85;;
46777;SDS011;32536;47.128;8.746;2022-12-29T18:08:10;4.80;;;1.55;;
46777;SDS011;32536;47.128;8.746;2022-12-29T18:10:37;3.22;;;1.70;;
46777;SDS011;32536;47.128;8.746;2022-12-29T18:13:06;3.67;;;2.25;;
46777;SDS011;32536;47.128;8.746;2022-12-29T18:15:45;2.88;;;1.15;;
46777;SDS011;32536;47.128;8.746;2022-12-29T18:18:13;5.38;;;2.25;;
46777;SDS011;32536;47.128;8.746;2022-12-29T18:20:43;4.32;;;2.08;;
46777;SDS011;32536;47.128;8.746;2022-12-29T18:23:19;7.35;;;2.50;;
46777;SDS011;32536;47.128;8.746;2022-12-29T18:28:36;6.32;;;3.40;;
46777;SDS011;32536;47.128;8.746;2022-12-29T18:31:03;6.25;;;3.40;;
46777;SDS011;32536;47.128;8.746;2022-12-29T18:34:10;4.82;;;2.78;;
46777;SDS011;32536;47.128;8.746;2022-12-29T18:36:39;6.15;;;3.47;;
46777;SDS011;32536;47.128;8.746;2022-12-29T18:39:06;4.75;;;2.42;;
46777;SDS011;32536;47.128;8.746;2022-12-29T18:41:33;5.30;;;3.05;;
46777;SDS011;32536;47.128;8.746;2022-12-29T18:44:00;2.95;;;1.40;;
46777;SDS011;32536;47.128;8.746;2022-12-29T18:46:27;2.80;;;1.45;;
46777;SDS011;32536;47.128;8.746;2022-12-29T18:48:54;2.40;;;1.50;;
46777;SDS011;32536;47.128;8.746;2022-12-29T18:51:24;3.47;;;1.13;;
46777;SDS011;32536;47.128;8.746;2022-12-29T18:53:51;1.73;;;0.95;;
46777;SDS011;32536;47.128;8.746;2022-12-29T18:56:18;2.38;;;0.95;;
46777;SDS011;32536;47.128;8.746;2022-12-29T18:58:47;2.35;;;1.20;;
46777;SDS011;32536;47.128;8.746;2022-12-29T19:01:17;1.77;;;1.00;;
46777;SDS011;32536;47.128;8.746;2022-12-29T19:03:49;1.75;;;0.80;;
46777;SDS011;32536;47.128;8.746;2022-12-29T19:06:16;3.42;;;1.30;;
46777;SDS011;32536;47.128;8.746;2022-12-29T19:08:45;3.42;;;1.55;;
46777;SDS011;32536;47.128;8.746;2022-12-29T19:11:12;2.70;;;1.27;;
46777;SDS011;32536;47.128;8.746;2022-12-29T19:13:38;2.70;;;1.38;;
46777;SDS011;32536;47.128;8.746;2022-12-29T19:16:05;3.05;;;1.45;;